Terminal Aerodrome Forecast
Issued by NWS

Home | Current Version | Previous Version | Text Only | Print | Product List | Glossary On
Versions: 1 2 3 4 5 6 7 8 9 10 11 12 13 14 15
138
FTUS46 KLOX 061749
TAFPMD
TAF
KPMD 061749Z 0618/0718 24014KT P6SM SCT080
     FM062000 24018G26KT P6SM -SHRA VCTS SCT035CB BKN060
     FM070200 23014KT P6SM VCSH SCT030 BKN070
     FM070900 23014KT P6SM -SHRA BKN025 OVC050
     FM071600 23016KT P6SM SCT040 BKN080=

USA.gov is the U.S. government's official web portal to all federal, state and local government web resources and services.